Time;durP1;ratioP1;P1;durP2;ratioP2;P2;SDS_P1;SDS_P2;PMS_P1;PMS_P2;Temp;Humidity;BMP_temperature;BMP_pressure;BME280_temperature;BME280_humidity;BME280_pressure;Samples;Min_cycle;Max_cycle;Signal;HPM_P1;HPM_P2
2022/09/19 00:01:28;;;;;;;0.93;0.60;;;;;;;27.71;23.34;97210.53;5065264;28;20465;-78
2022/09/19 00:03:58;;;;;;;0.30;0.30;;;;;;;27.79;22.96;97217.38;5047207;28;20044;-78
2022/09/19 00:06:28;;;;;;;0.35;0.35;;;;;;;27.85;22.58;97215.47;5055226;28;20033;-78
2022/09/19 00:08:56;;;;;;;0.43;0.40;;;;;;;27.96;22.68;97215.69;5059762;28;20060;-78
2022/09/19 00:11:24;;;;;;;0.30;0.30;;;;;;;27.88;22.76;97210.91;5066139;28;20069;-78
2022/09/19 00:13:51;;;;;;;0.65;0.30;;;;;;;27.79;23.16;97206.09;5062171;28;21014;-78
2022/09/19 00:16:23;;;;;;;1.20;0.40;;;;;;;28.02;23.20;97215.84;5059460;28;20067;-78
2022/09/19 00:18:50;;;;;;;0.20;0.20;;;;;;;28.20;22.77;97207.22;5079443;28;20466;-78
2022/09/19 00:21:21;;;;;;;0.82;0.35;;;;;;;28.20;22.98;97203.63;5054436;28;20394;-78
2022/09/19 00:26:33;;;;;;;0.20;0.20;;;;;;;28.27;22.74;97198.38;5059773;28;20417;-78
2022/09/19 00:28:59;;;;;;;0.95;0.30;;;;;;;28.22;22.85;97196.22;5061339;28;20166;-78
2022/09/19 00:31:25;;;;;;;1.15;0.30;;;;;;;28.42;22.88;97199.19;5063093;28;20079;-77
2022/09/19 00:33:52;;;;;;;0.75;0.30;;;;;;;28.60;22.77;97192.63;5064287;28;20418;-78
2022/09/19 00:36:19;;;;;;;0.70;0.43;;;;;;;28.79;22.24;97194.00;5065297;28;20494;-77
2022/09/19 00:38:45;;;;;;;0.35;0.30;;;;;;;28.78;22.42;97192.41;5060474;28;20776;-78
2022/09/19 00:41:20;;;;;;;0.85;0.20;;;;;;;28.97;22.47;97196.59;5062725;28;20025;-78
2022/09/19 00:43:56;;;;;;;0.20;0.20;;;;;;;29.02;22.23;97192.31;5061768;28;20041;-77
2022/09/19 00:46:23;;;;;;;0.45;0.30;;;;;;;28.86;22.17;97196.41;5058631;28;20036;-77
2022/09/19 00:48:56;;;;;;;0.20;0.20;;;;;;;28.67;22.96;97197.88;5061683;28;20041;-78
2022/09/19 00:51:37;;;;;;;0.20;0.20;;;;;;;28.70;22.78;97191.25;5064257;28;20044;-78
2022/09/19 00:54:12;;;;;;;0.20;0.20;;;;;;;28.87;22.62;97188.72;5062007;28;20032;-78
2022/09/19 00:56:42;;;;;;;0.40;0.20;;;;;;;29.01;22.28;97197.19;5067545;28;20032;-78
2022/09/19 00:59:10;;;;;;;0.85;0.30;;;;;;;29.01;22.27;97197.19;5070068;28;20043;-78
2022/09/19 01:01:38;;;;;;;0.38;0.20;;;;;;;29.16;22.20;97194.34;5069398;28;20108;-78
2022/09/19 01:04:17;;;;;;;0.70;0.10;;;;;;;28.90;22.56;97194.16;5075610;28;20360;-78
2022/09/19 01:07:24;;;;;;;0.20;0.13;;;;;;;28.71;22.82;97187.94;5067795;28;20068;-77
2022/09/19 01:10:03;;;;;;;0.28;0.20;;;;;;;28.82;22.52;97195.06;5033070;28;20041;-78
2022/09/19 01:13:09;;;;;;;0.20;0.20;;;;;;;28.98;22.56;97191.75;5063775;28;20043;-78
2022/09/19 01:15:49;;;;;;;0.40;0.22;;;;;;;28.78;22.53;97186.75;5061025;28;20389;-77
2022/09/19 01:18:18;;;;;;;0.30;0.30;;;;;;;28.56;22.82;97181.50;5064280;28;20040;-78
2022/09/19 01:20:44;;;;;;;0.35;0.30;;;;;;;28.58;22.95;97181.00;5065951;28;20043;-78
2022/09/19 01:23:26;;;;;;;0.50;0.40;;;;;;;28.01;23.42;97194.50;5066437;28;20037;-78
2022/09/19 01:26:09;;;;;;;0.40;0.40;;;;;;;26.79;25.11;97199.34;5060830;28;20029;-77
2022/09/19 01:28:47;;;;;;;0.82;0.55;;;;;;;25.65;26.52;97216.84;5060217;28;20068;-78
2022/09/19 01:31:23;;;;;;;0.70;0.30;;;;;;;24.23;28.73;97215.09;5064076;28;20052;-78
2022/09/19 01:33:55;;;;;;;0.40;0.30;;;;;;;25.21;26.94;97225.41;5068620;28;20040;-78
2022/09/19 01:36:29;;;;;;;2.05;0.20;;;;;;;25.43;26.68;97214.09;5071348;28;20029;-78
2022/09/19 01:38:57;;;;;;;0.28;0.20;;;;;;;25.80;25.91;97214.97;5056104;28;20482;-78
2022/09/19 01:41:23;;;;;;;0.68;0.30;;;;;;;25.58;26.78;97220.69;5067402;28;20024;-78
2022/09/19 01:43:50;;;;;;;0.20;0.20;;;;;;;26.21;25.54;97211.56;5061530;28;20517;-78
2022/09/19 01:46:36;;;;;;;0.28;0.15;;;;;;;26.63;25.08;97209.66;5058976;28;20435;-78
2022/09/19 01:49:19;;;;;;;0.52;0.30;;;;;;;26.59;24.87;97217.50;5066112;28;20044;-78
2022/09/19 01:51:50;;;;;;;0.38;0.30;;;;;;;26.29;25.32;97214.88;5064307;28;20045;-78
2022/09/19 01:54:56;;;;;;;0.22;0.20;;;;;;;26.15;25.63;97218.31;5062693;28;20024;-78
2022/09/19 01:57:47;;;;;;;1.48;0.40;;;;;;;26.58;24.89;97217.97;5063893;28;20086;-78
2022/09/19 02:00:20;;;;;;;0.30;0.30;;;;;;;26.41;25.40;97219.56;5074023;28;20028;-78
2022/09/19 02:02:56;;;;;;;0.30;0.30;;;;;;;26.51;25.19;97221.88;5069992;28;20032;-78
2022/09/19 02:05:34;;;;;;;0.35;0.35;;;;;;;26.59;25.34;97219.53;5065904;28;20064;-78
2022/09/19 02:08:21;;;;;;;0.35;0.30;;;;;;;26.76;25.15;97217.19;5066488;28;20083;-78
2022/09/19 02:11:03;;;;;;;1.25;0.40;;;;;;;27.27;24.00;97217.94;5066435;28;20389;-78
2022/09/19 02:13:34;;;;;;;0.40;0.40;;;;;;;27.27;24.05;97234.84;5070047;28;20126;-78
2022/09/19 02:16:11;;;;;;;0.30;0.30;;;;;;;27.46;24.24;97230.72;5065053;28;20116;-78
2022/09/19 02:19:03;;;;;;;0.30;0.30;;;;;;;27.27;24.54;97234.84;5063362;28;20510;-78
2022/09/19 02:21:54;;;;;;;0.30;0.30;;;;;;;27.46;24.46;97230.72;5062787;28;20390;-79
2022/09/19 02:24:27;;;;;;;0.32;0.30;;;;;;;26.83;24.88;97236.56;5066456;28;20045;-78
2022/09/19 02:26:57;;;;;;;0.65;0.35;;;;;;;26.54;25.09;97229.38;5060175;28;20041;-78
2022/09/19 02:29:30;;;;;;;0.30;0.20;;;;;;;26.59;24.97;97240.03;5063358;28;20045;-77
2022/09/19 02:31:57;;;;;;;2.30;0.50;;;;;;;26.59;25.22;97242.84;5060384;28;20032;-78
2022/09/19 02:34:24;;;;;;;0.80;0.30;;;;;;;26.68;24.75;97237.19;5066770;28;20044;-78
2022/09/19 02:36:52;;;;;;;0.50;0.30;;;;;;;26.50;25.07;97242.84;5067170;28;20036;-78
2022/09/19 02:39:46;;;;;;;0.35;0.35;;;;;;;26.19;25.66;97250.66;5064903;28;20036;-78
2022/09/19 02:42:43;;;;;;;0.40;0.40;;;;;;;26.59;25.15;97242.03;5068554;28;20016;-78
2022/09/19 02:45:28;;;;;;;0.22;0.22;;;;;;;26.61;24.97;97242.34;5063189;28;20033;-78
2022/09/19 02:48:13;;;;;;;0.35;0.30;;;;;;;26.52;25.11;97243.16;5066344;28;20032;-78
2022/09/19 02:50:48;;;;;;;0.40;0.40;;;;;;;26.53;25.08;97241.91;5071436;28;20123;-77
2022/09/19 02:53:21;;;;;;;2.03;0.50;;;;;;;26.43;24.92;97245.97;5066629;28;20029;-78
2022/09/19 02:55:52;;;;;;;0.63;0.45;;;;;;;26.62;24.95;97246.75;5065478;28;20035;-78
2022/09/19 02:58:19;;;;;;;;;;;;;;;26.26;25.20;97243.94;5067635;28;20036;-78
2022/09/19 03:00:52;;;;;;;1.60;0.50;;;;;;;26.56;25.08;97252.22;5065205;28;19931;-78
2022/09/19 03:06:37;;;;;;;0.40;0.40;;;;;;;26.22;25.21;97246.91;5066316;28;20402;-78
2022/09/19 03:09:06;;;;;;;0.82;0.32;;;;;;;26.61;24.77;97257.22;5064881;28;20044;-78
2022/09/19 03:11:34;;;;;;;0.52;0.52;;;;;;;26.95;24.18;97258.13;5064399;28;20115;-78
2022/09/19 03:14:01;;;;;;;0.40;0.40;;;;;;;26.66;24.43;97255.81;5067295;28;20059;-77
2022/09/19 03:16:34;;;;;;;0.40;0.40;;;;;;;26.36;24.90;97266.00;5061422;28;20024;-78
2022/09/19 03:19:07;;;;;;;0.40;0.40;;;;;;;26.66;24.63;97270.66;5067089;28;20081;-78
2022/09/19 03:21:34;;;;;;;0.50;0.50;;;;;;;27.19;23.81;97271.03;5060405;28;20060;-78
2022/09/19 03:24:01;;;;;;;0.60;0.30;;;;;;;27.34;23.60;97273.97;5066361;28;20090;-77
2022/09/19 03:26:34;;;;;;;0.40;0.40;;;;;;;27.05;24.05;97268.13;5060350;28;20032;-77
2022/09/19 03:29:02;;;;;;;0.60;0.60;;;;;;;26.69;24.41;97272.56;5065767;28;20040;-78
2022/09/19 03:31:28;;;;;;;0.80;0.70;;;;;;;26.30;24.73;97267.84;5060465;28;20029;-78
2022/09/19 03:33:56;;;;;;;0.80;0.70;;;;;;;25.92;25.50;97278.75;5064014;28;20040;-78
2022/09/19 03:36:23;;;;;;;0.65;0.65;;;;;;;26.05;25.14;97270.94;5070145;28;20032;-77
2022/09/19 03:38:49;;;;;;;0.55;0.55;;;;;;;26.46;24.85;97278.03;5056694;28;20032;-77
2022/09/19 03:41:18;;;;;;;0.80;0.80;;;;;;;26.86;24.41;97281.47;5060873;28;20406;-77
2022/09/19 03:43:44;;;;;;;0.80;0.80;;;;;;;27.20;23.95;97281.06;5066881;28;20086;-78
2022/09/19 03:46:15;;;;;;;1.55;1.05;;;;;;;27.42;23.65;97280.88;5065725;28;20040;-78
2022/09/19 03:48:46;;;;;;;0.50;0.50;;;;;;;27.75;23.27;97286.53;5061713;28;20405;-78
2022/09/19 03:51:16;;;;;;;0.50;0.50;;;;;;;27.71;23.35;97283.09;5080904;28;20052;-77
2022/09/19 03:53:43;;;;;;;0.60;0.60;;;;;;;28.02;23.04;97275.91;5057727;28;20108;-77
2022/09/19 03:56:10;;;;;;;0.60;0.40;;;;;;;28.00;23.08;97281.25;5065044;28;20497;-78
2022/09/19 03:58:40;;;;;;;0.32;0.32;;;;;;;27.81;23.52;97281.78;5061791;28;20557;-78
2022/09/19 04:01:07;;;;;;;0.70;0.50;;;;;;;28.04;23.02;97281.84;5061404;28;20025;-78
2022/09/19 04:03:35;;;;;;;0.50;0.50;;;;;;;28.16;22.75;97282.06;5058782;28;20025;-78
2022/09/19 04:06:02;;;;;;;0.50;0.50;;;;;;;28.04;22.91;97284.66;5060187;28;20058;-79
2022/09/19 04:08:28;;;;;;;0.90;0.60;;;;;;;27.44;23.71;97280.41;5059250;28;20089;-78
2022/09/19 04:10:54;;;;;;;1.15;0.60;;;;;;;27.30;23.90;97281.84;5053665;28;20039;-79
2022/09/19 04:13:21;;;;;;;1.00;0.60;;;;;;;27.66;23.38;97289.38;5056658;28;20158;-78
2022/09/19 04:15:48;;;;;;;1.33;0.60;;;;;;;27.96;23.07;97291.09;5054331;28;20113;-78
2022/09/19 04:18:15;;;;;;;0.60;0.60;;;;;;;27.76;23.07;97291.69;5059414;28;20597;-77
2022/09/19 04:20:41;;;;;;;0.60;0.60;;;;;;;27.89;23.25;97292.22;5059594;28;20029;-77
2022/09/19 04:23:07;;;;;;;0.57;0.57;;;;;;;27.99;22.97;97282.50;5058524;28;20029;-77
2022/09/19 04:25:35;;;;;;;0.77;0.68;;;;;;;28.17;22.71;97283.63;5057835;28;20127;-77
2022/09/19 04:28:03;;;;;;;0.73;0.60;;;;;;;28.27;22.61;97294.38;5052016;28;20509;-77
2022/09/19 04:30:35;;;;;;;0.75;0.57;;;;;;;28.32;22.58;97288.06;5066571;28;20401;-78
2022/09/19 04:33:03;;;;;;;0.70;0.70;;;;;;;28.36;22.49;97296.34;5072631;28;20029;-78
2022/09/19 04:35:35;;;;;;;1.33;0.60;;;;;;;28.11;22.51;97299.66;5070966;28;20078;-78
2022/09/19 04:38:02;;;;;;;0.93;0.70;;;;;;;28.20;22.45;97294.72;5063391;28;20037;-77
2022/09/19 04:40:28;;;;;;;1.67;1.08;;;;;;;28.26;22.41;97303.34;5073628;28;20033;-77
2022/09/19 04:42:55;;;;;;;1.13;1.02;;;;;;;27.77;22.86;97310.16;5076797;28;20029;-77
2022/09/19 04:45:22;;;;;;;0.70;0.70;;;;;;;27.59;23.17;97312.28;5059830;28;20037;-78
2022/09/19 04:47:48;;;;;;;1.15;0.80;;;;;;;27.80;22.92;97314.06;5056520;28;20093;-77
2022/09/19 04:50:15;;;;;;;2.67;0.65;;;;;;;27.48;23.30;97307.16;5069777;28;20135;-78
2022/09/19 04:52:41;;;;;;;1.95;1.05;;;;;;;27.42;23.35;97311.91;5075246;28;20123;-78
2022/09/19 04:55:09;;;;;;;1.70;1.27;;;;;;;27.17;23.67;97312.22;5074220;28;20035;-78
2022/09/19 04:57:35;;;;;;;0.95;0.77;;;;;;;27.50;23.28;97320.78;5075173;28;20037;-78
2022/09/19 05:00:03;;;;;;;0.80;0.70;;;;;;;27.44;23.52;97323.47;5076152;28;20082;-78
2022/09/19 05:02:31;;;;;;;1.30;1.00;;;;;;;27.76;23.14;97322.72;5076482;28;20115;-77
2022/09/19 05:04:57;;;;;;;1.52;0.85;;;;;;;27.55;23.20;97320.91;5076444;28;20122;-78
2022/09/19 05:07:33;;;;;;;4.10;1.58;;;;;;;27.19;23.40;97321.78;5075875;28;20033;-78
2022/09/19 05:10:01;;;;;;;3.90;1.17;;;;;;;27.33;23.47;97328.78;5075506;28;20028;-78
2022/09/19 05:12:28;;;;;;;4.82;1.13;;;;;;;27.56;23.57;97330.97;5069059;28;20020;-78
2022/09/19 05:14:54;;;;;;;0.95;0.95;;;;;;;27.67;23.42;97336.88;5075275;28;20111;-78
2022/09/19 05:17:21;;;;;;;1.23;1.13;;;;;;;27.91;23.14;97340.50;5076026;28;20032;-78
2022/09/19 05:19:47;;;;;;;0.70;0.70;;;;;;;27.74;23.51;97344.97;5070793;28;20029;-78
2022/09/19 05:22:13;;;;;;;0.90;0.88;;;;;;;27.79;23.60;97349.97;5075742;28;20025;-78
2022/09/19 05:24:40;;;;;;;1.13;0.93;;;;;;;27.99;23.14;97352.25;5065852;28;20508;-78
2022/09/19 05:27:06;;;;;;;1.27;1.00;;;;;;;27.29;24.09;97356.38;5066500;28;20034;-77
2022/09/19 05:29:36;;;;;;;3.78;1.10;;;;;;;26.92;24.52;97360.50;5064682;28;20060;-77
2022/09/19 05:32:04;;;;;;;1.42;1.02;;;;;;;27.31;24.18;97356.66;5075871;28;20416;-78
2022/09/19 05:34:30;;;;;;;1.95;0.98;;;;;;;27.03;24.09;97355.16;5074839;28;20044;-78
2022/09/19 05:36:57;;;;;;;1.73;1.05;;;;;;;27.08;24.07;97360.16;5075764;28;20115;-78
2022/09/19 05:39:23;;;;;;;1.58;1.10;;;;;;;27.29;23.77;97367.63;5074864;28;20040;-78
2022/09/19 05:41:52;;;;;;;1.48;0.95;;;;;;;27.45;23.91;97369.34;5074447;28;20037;-77
2022/09/19 05:44:18;;;;;;;1.15;1.05;;;;;;;27.69;23.49;97373.03;5074935;28;20037;-78
2022/09/19 05:46:45;;;;;;;0.90;0.90;;;;;;;27.62;23.60;97374.16;5073525;28;20535;-78
2022/09/19 05:49:11;;;;;;;1.05;0.90;;;;;;;28.03;23.48;97369.78;5074231;28;20128;-78
2022/09/19 05:51:37;;;;;;;1.10;1.00;;;;;;;27.67;23.56;97375.56;5074779;28;20121;-78
2022/09/19 05:54:03;;;;;;;2.03;1.42;;;;;;;27.47;23.77;97375.31;5074245;28;20049;-78
2022/09/19 05:56:29;;;;;;;1.30;0.80;;;;;;;27.10;24.38;97380.19;5075373;28;20033;-78
2022/09/19 05:58:56;;;;;;;5.38;1.17;;;;;;;26.77;24.78;97388.50;5075323;28;20032;-78
2022/09/19 06:01:22;;;;;;;1.85;1.10;;;;;;;26.98;24.33;97381.94;5074795;28;20029;-78
2022/09/19 06:03:48;;;;;;;1.52;1.00;;;;;;;27.11;24.19;97391.00;5074178;28;20070;-78
2022/09/19 06:06:18;;;;;;;1.40;1.00;;;;;;;26.87;24.29;97389.28;5075058;28;20370;-78
2022/09/19 06:08:46;;;;;;;3.30;1.10;;;;;;;26.49;24.74;97387.66;5075107;28;20553;-78
2022/09/19 06:11:13;;;;;;;1.98;1.02;;;;;;;26.87;24.54;97386.47;5075002;28;20024;-78
2022/09/19 06:16:23;;;;;;;1.02;0.85;;;;;;;26.62;25.31;97393.16;5075236;28;20093;-78
2022/09/19 06:18:50;;;;;;;2.33;1.10;;;;;;;26.32;25.67;97389.22;5069814;28;20029;-78
2022/09/19 06:21:16;;;;;;;1.52;0.90;;;;;;;26.45;25.74;97398.31;5054475;28;20029;-78
2022/09/19 06:23:42;;;;;;;1.67;0.88;;;;;;;27.27;24.94;97398.34;5058765;28;20036;-78
2022/09/19 06:26:11;;;;;;;2.72;0.90;;;;;;;27.17;24.96;97396.78;5058623;28;20040;-78
2022/09/19 06:28:37;;;;;;;0.93;0.85;;;;;;;27.45;24.38;97401.16;5054707;28;20035;-78
2022/09/19 06:31:04;;;;;;;0.77;0.70;;;;;;;27.82;24.82;97407.50;5058447;28;20069;-78
2022/09/19 06:33:31;;;;;;;1.58;0.93;;;;;;;27.55;24.43;97401.91;5074204;28;20028;-78
2022/09/19 06:35:59;;;;;;;1.23;0.80;;;;;;;27.86;24.43;97406.06;5073023;28;20025;-78
2022/09/19 06:38:26;;;;;;;0.68;0.68;;;;;;;27.96;23.94;97407.56;5054460;28;20027;-78
2022/09/19 06:40:52;;;;;;;0.80;0.70;;;;;;;27.39;24.11;97403.06;5054589;28;20029;-78
2022/09/19 06:43:18;;;;;;;0.50;0.50;;;;;;;27.76;24.56;97406.56;5054347;28;20379;-78
2022/09/19 06:45:44;;;;;;;1.15;0.60;;;;;;;27.04;24.67;97408.25;5054425;28;20040;-78
2022/09/19 06:48:10;;;;;;;0.52;0.43;;;;;;;27.03;24.84;97425.59;5054134;28;20029;-78
2022/09/19 06:50:36;;;;;;;0.55;0.55;;;;;;;26.66;25.93;97424.78;5056673;28;20056;-78
2022/09/19 06:53:03;;;;;;;0.93;0.82;;;;;;;27.09;24.96;97430.16;5072807;28;20047;-78
2022/09/19 06:55:30;;;;;;;0.57;0.57;;;;;;;26.24;25.67;97430.16;5072976;28;20032;-78
2022/09/19 06:57:58;;;;;;;1.75;0.60;;;;;;;26.67;24.57;97429.16;5067670;28;20029;-78
2022/09/19 07:00:29;;;;;;;0.65;0.60;;;;;;;25.79;25.94;97435.56;5073182;28;20390;-78
2022/09/19 07:03:00;;;;;;;0.60;0.60;;;;;;;26.51;25.51;97444.28;5071067;28;20468;-78
2022/09/19 07:05:27;;;;;;;;;;;;;;;27.10;24.40;97439.38;5074324;28;20082;-78
2022/09/19 07:07:53;;;;;;;0.82;0.40;;;;;;;27.33;23.84;97447.19;5072655;28;19917;-78
2022/09/19 07:10:20;;;;;;;0.75;0.50;;;;;;;27.38;23.90;97440.94;5070736;28;20032;-78
2022/09/19 07:13:01;;;;;;;2.03;0.50;;;;;;;27.75;23.56;97448.09;5072683;28;20055;-78
2022/09/19 07:15:36;;;;;;;3.05;0.50;;;;;;;27.47;23.81;97455.03;5072722;28;20090;-78
2022/09/19 07:18:07;;;;;;;0.80;0.40;;;;;;;27.61;23.84;97453.63;5069558;28;20044;-78
2022/09/19 07:20:35;;;;;;;0.50;0.50;;;;;;;27.95;23.42;97459.66;5056593;28;20025;-78
2022/09/19 07:23:17;;;;;;;0.85;0.57;;;;;;;28.25;23.61;97457.03;5073182;28;20040;-78
2022/09/19 07:25:43;;;;;;;1.45;0.55;;;;;;;28.26;23.30;97461.44;5073227;28;20509;-78
2022/09/19 07:28:13;;;;;;;0.52;0.40;;;;;;;28.16;23.80;97469.16;5072452;28;20041;-78
2022/09/19 07:30:40;;;;;;;1.58;0.70;;;;;;;27.33;24.14;97466.91;5073428;28;20029;-78
2022/09/19 07:33:10;;;;;;;0.55;0.50;;;;;;;27.56;25.21;97462.72;5073368;28;20028;-78
2022/09/19 07:35:37;;;;;;;0.95;0.60;;;;;;;27.85;24.60;97460.13;5073455;28;20032;-78
2022/09/19 07:38:04;;;;;;;1.33;0.80;;;;;;;28.06;24.92;97464.78;5073663;28;20043;-78
2022/09/19 07:40:33;;;;;;;1.92;0.75;;;;;;;27.95;25.04;97470.94;5073377;28;20025;-78
2022/09/19 07:43:02;;;;;;;0.98;0.60;;;;;;;28.41;25.13;97468.72;5072982;28;20103;-78
2022/09/19 07:45:35;;;;;;;0.63;0.60;;;;;;;28.62;24.11;97472.56;5071091;28;20470;-78
2022/09/19 07:48:01;;;;;;;1.50;0.70;;;;;;;28.22;24.73;97470.06;5073300;28;20040;-78
2022/09/19 07:50:28;;;;;;;0.50;0.50;;;;;;;28.23;24.58;97473.69;5072015;28;20605;-78
2022/09/19 07:53:05;;;;;;;2.22;0.68;;;;;;;27.61;24.71;97471.31;5073577;28;20551;-78
2022/09/19 07:55:31;;;;;;;0.98;0.73;;;;;;;27.46;25.15;97466.78;5073083;28;20045;-78
2022/09/19 07:57:59;;;;;;;0.50;0.50;;;;;;;27.45;24.66;97468.03;5073257;28;20029;-78
2022/09/19 08:00:27;;;;;;;1.85;0.60;;;;;;;26.92;25.72;97478.81;5070620;28;20029;-78
2022/09/19 08:02:55;;;;;;;0.52;0.52;;;;;;;27.18;25.27;97480.88;5072858;28;20103;-78
2022/09/19 08:05:22;;;;;;;0.68;0.50;;;;;;;26.90;25.33;97478.50;5073017;28;20028;-78
2022/09/19 08:07:48;;;;;;;0.40;0.40;;;;;;;27.24;24.93;97475.38;5072938;28;20078;-78
2022/09/19 08:10:15;;;;;;;1.17;0.50;;;;;;;26.10;25.91;97484.19;5073083;28;20042;-78
2022/09/19 08:12:44;;;;;;;1.05;0.75;;;;;;;26.00;26.12;97490.97;5072292;28;20028;-78
2022/09/19 08:15:15;;;;;;;0.85;0.60;;;;;;;27.04;24.95;97481.50;5066301;28;20032;-78
2022/09/19 08:18:01;;;;;;;0.75;0.65;;;;;;;27.56;24.38;97477.59;5070728;28;20033;-78
2022/09/19 08:20:31;;;;;;;0.93;0.90;;;;;;;26.71;26.06;97486.91;5065832;28;20044;-78
2022/09/19 08:23:02;;;;;;;0.85;0.80;;;;;;;26.09;27.66;97497.44;5072885;28;20132;-78
2022/09/19 08:25:32;;;;;;;1.10;0.82;;;;;;;26.26;27.04;97485.97;5072896;28;20040;-78
2022/09/19 08:27:58;;;;;;;2.00;1.00;;;;;;;27.29;25.61;97474.75;5062678;28;20032;-78
2022/09/19 08:30:29;;;;;;;1.30;1.17;;;;;;;25.81;28.29;97484.47;5070087;28;20032;-78
2022/09/19 08:32:56;;;;;;;1.42;1.02;;;;;;;26.39;26.95;97484.63;5071763;28;20029;-78
2022/09/19 08:35:23;;;;;;;1.65;0.95;;;;;;;26.69;26.12;97478.13;5063544;28;20048;-78
2022/09/19 08:38:00;;;;;;;1.02;0.75;;;;;;;27.31;25.40;97486.34;5064918;28;20103;-78
2022/09/19 08:40:30;;;;;;;0.90;0.60;;;;;;;28.05;24.47;97477.34;5073178;28;20095;-78
2022/09/19 08:43:11;;;;;;;1.70;0.50;;;;;;;27.87;24.87;97478.16;5068133;28;20439;-78
2022/09/19 08:46:16;;;;;;;1.73;0.90;;;;;;;27.42;24.43;97478.25;5072585;28;20386;-78
2022/09/19 08:49:27;;;;;;;0.60;0.50;;;;;;;27.84;24.33;97484.72;5065187;28;20120;-78
2022/09/19 08:52:08;;;;;;;1.90;0.73;;;;;;;27.42;24.61;97478.25;5044306;28;20049;-78
2022/09/19 08:54:38;;;;;;;;;;;;;;;27.72;23.57;97474.44;5053137;28;20040;-78
2022/09/19 08:57:12;;;;;;;0.50;0.50;;;;;;;27.66;24.13;97473.50;5052527;28;19966;-78
2022/09/19 08:59:39;;;;;;;0.50;0.50;;;;;;;26.71;25.97;97489.72;5052288;28;20045;-78
2022/09/19 09:02:41;;;;;;;2.80;0.88;;;;;;;26.88;25.21;97481.00;5067630;28;20120;-78
2022/09/19 09:05:13;;;;;;;2.13;1.02;;;;;;;27.83;24.69;97474.72;5072447;28;20025;-78
2022/09/19 09:07:55;;;;;;;1.48;0.60;;;;;;;27.16;24.63;97474.16;5072220;28;20024;-78
2022/09/19 09:10:36;;;;;;;0.50;0.43;;;;;;;27.69;24.36;97468.94;5052355;28;20060;-78
2022/09/19 09:13:50;;;;;;;0.70;0.50;;;;;;;27.60;24.06;97469.75;5053988;28;20029;-78
2022/09/19 09:16:24;;;;;;;1.45;0.57;;;;;;;28.13;23.88;97483.44;5055963;28;20037;-78
2022/09/19 09:19:08;;;;;;;0.98;0.60;;;;;;;28.91;23.41;97472.72;5055396;28;20017;-78
2022/09/19 09:22:09;;;;;;;0.50;0.43;;;;;;;29.41;23.03;97473.72;5069586;28;20029;-78
2022/09/19 09:24:39;;;;;;;0.95;0.60;;;;;;;30.11;22.89;97471.19;5074056;28;20437;-78
2022/09/19 09:27:13;;;;;;;0.55;0.50;;;;;;;30.49;23.27;97476.69;5063978;28;20469;-78
2022/09/19 09:29:45;;;;;;;0.80;0.70;;;;;;;30.41;21.99;97479.13;5069820;28;20064;-78
2022/09/19 09:32:26;;;;;;;2.10;0.70;;;;;;;30.47;21.67;97470.75;5075206;28;20450;-78
2022/09/19 09:34:56;;;;;;;0.63;0.57;;;;;;;29.98;22.18;97472.25;5075290;28;20033;-78
2022/09/19 09:37:46;;;;;;;1.77;0.50;;;;;;;30.30;23.20;97475.31;5074790;28;20111;-78
2022/09/19 09:43:08;;;;;;;0.40;0.40;;;;;;;30.98;22.83;97485.16;5060817;28;20126;-78
2022/09/19 09:45:49;;;;;;;0.63;0.63;;;;;;;31.12;21.45;97489.19;5072051;28;20097;-78
2022/09/19 09:48:34;;;;;;;0.43;0.43;;;;;;;31.30;21.85;97483.22;5058208;28;20474;-78
2022/09/19 09:51:20;;;;;;;0.40;0.40;;;;;;;30.89;22.52;97476.00;5075173;28;20055;-78
2022/09/19 09:53:52;;;;;;;0.30;0.30;;;;;;;30.15;22.43;97483.88;5075343;28;20064;-78
2022/09/19 09:56:34;;;;;;;1.88;0.30;;;;;;;30.50;21.80;97481.09;5075176;28;20112;-78
2022/09/19 10:05:46;;;;;;;1.73;0.50;;;;;;;26.53;28.16;97531.91;5033401;28;20068;-78
2022/09/19 10:08:18;;;;;;;0.68;0.30;;;;;;;24.70;31.22;97535.78;5033232;28;20128;-79
2022/09/19 10:10:46;;;;;;;0.32;0.32;;;;;;;24.92;28.80;97535.91;5056773;28;20497;-80
2022/09/19 10:13:27;;;;;;;1.60;0.40;;;;;;;24.92;29.24;97525.44;5075413;28;20039;-80
2022/09/19 10:16:02;;;;;;;0.20;0.20;;;;;;;25.97;27.02;97529.28;5074388;28;20028;-81
2022/09/19 10:18:43;;;;;;;0.32;0.30;;;;;;;26.16;26.73;97533.00;5055670;28;20043;-80
2022/09/19 10:21:09;;;;;;;0.20;0.20;;;;;;;26.69;26.15;97531.66;5063706;28;20406;-79
2022/09/19 10:23:35;;;;;;;0.30;0.30;;;;;;;26.65;26.31;97533.03;5068409;28;20029;-79
2022/09/19 10:26:04;;;;;;;0.55;0.20;;;;;;;27.15;26.39;97537.41;5071466;28;20064;-78
2022/09/19 10:28:32;;;;;;;0.20;0.20;;;;;;;27.44;25.79;97531.34;5070874;28;20036;-78
2022/09/19 10:31:01;;;;;;;0.30;0.30;;;;;;;26.94;27.33;97544.72;5066921;28;20685;-78
2022/09/19 10:33:41;;;;;;;0.40;0.30;;;;;;;27.54;26.30;97547.78;5051518;28;20132;-78
2022/09/19 10:36:19;;;;;;;0.30;0.20;;;;;;;27.29;26.20;97548.06;5070297;28;20029;-78
2022/09/19 10:38:59;;;;;;;1.65;0.35;;;;;;;26.86;26.90;97560.38;5069812;28;20036;-78
2022/09/19 10:41:32;;;;;;;0.32;0.30;;;;;;;26.51;26.43;97561.78;5071325;28;20091;-78
2022/09/19 10:44:22;;;;;;;1.30;0.50;;;;;;;26.71;27.39;97567.78;5061566;28;20044;-78
2022/09/19 10:46:55;;;;;;;0.30;0.30;;;;;;;26.80;27.00;97572.69;5065425;28;20041;-78
2022/09/19 10:49:25;;;;;;;0.40;0.30;;;;;;;26.21;27.87;97562.56;5070985;28;20397;-77
2022/09/19 10:51:55;;;;;;;0.45;0.45;;;;;;;25.90;28.08;97579.38;5068538;28;20105;-78
2022/09/19 10:54:31;;;;;;;0.50;0.50;;;;;;;26.43;27.55;97580.97;5071812;28;20393;-77
2022/09/19 10:57:01;;;;;;;0.90;0.90;;;;;;;26.76;26.50;97586.94;5071494;28;20028;-77
2022/09/19 10:59:36;;;;;;;0.60;0.40;;;;;;;27.04;26.57;97588.59;5066310;28;20099;-77
2022/09/19 11:02:27;;;;;;;0.50;0.43;;;;;;;26.88;26.32;97599.34;5069214;28;20033;-77
2022/09/19 11:05:03;;;;;;;0.60;0.40;;;;;;;26.39;26.68;97593.63;5063822;28;20044;-77
2022/09/19 11:07:33;;;;;;;0.55;0.40;;;;;;;26.39;26.34;97594.41;5070698;28;20024;-77
2022/09/19 11:10:04;;;;;;;0.40;0.40;;;;;;;26.81;25.67;97596.81;5064926;28;20036;-78
2022/09/19 11:12:31;;;;;;;0.35;0.35;;;;;;;27.29;25.05;97590.34;5071352;28;20078;-77
2022/09/19 11:14:58;;;;;;;0.65;0.30;;;;;;;27.48;24.95;97594.00;5069612;28;20052;-78
2022/09/19 11:17:37;;;;;;;0.20;0.20;;;;;;;27.01;25.46;97595.16;5061315;28;20037;-78
2022/09/19 11:20:30;;;;;;;0.52;0.30;;;;;;;27.66;25.14;97600.44;5068156;28;20040;-78
2022/09/19 11:23:34;;;;;;;0.13;0.13;;;;;;;28.23;24.94;97597.91;5068628;28;20038;-78
2022/09/19 11:26:20;;;;;;;0.65;0.30;;;;;;;28.42;24.74;97591.75;5068914;28;20060;-78
2022/09/19 11:29:06;;;;;;;0.30;0.20;;;;;;;28.80;24.41;97599.59;5081253;28;20028;-77
2022/09/19 11:32:02;;;;;;;0.30;0.30;;;;;;;28.95;24.03;97597.66;5075010;28;20478;-77
2022/09/19 11:34:40;;;;;;;0.30;0.28;;;;;;;29.04;23.56;97594.78;5074025;28;20048;-77
2022/09/19 11:37:30;;;;;;;0.50;0.30;;;;;;;28.97;24.14;97588.69;5072230;28;20039;-77
2022/09/19 11:40:26;;;;;;;0.30;0.30;;;;;;;28.89;24.23;97585.47;5073211;28;20071;-77
2022/09/19 11:43:13;;;;;;;0.30;0.30;;;;;;;29.06;23.90;97582.97;5065047;28;20039;-77
2022/09/19 11:46:07;;;;;;;0.30;0.30;;;;;;;28.31;24.28;97587.84;5071251;28;20020;-77
2022/09/19 11:49:07;;;;;;;0.35;0.35;;;;;;;28.56;24.41;97581.78;5052126;28;20051;-77
2022/09/19 11:51:51;;;;;;;0.38;0.30;;;;;;;28.89;24.11;97579.00;5062629;28;20036;-77
2022/09/19 11:54:30;;;;;;;0.43;0.32;;;;;;;29.05;24.84;97579.41;5073235;28;20045;-77
2022/09/19 11:57:11;;;;;;;0.30;0.30;;;;;;;28.50;24.25;97572.38;5058159;28;20036;-77
2022/09/19 11:59:55;;;;;;;1.08;0.32;;;;;;;27.99;24.90;97570.34;5068380;28;20108;-77
2022/09/19 12:02:45;;;;;;;0.30;0.30;;;;;;;27.99;25.87;97567.53;5073532;28;20036;-77
2022/09/19 12:05:28;;;;;;;0.40;0.30;;;;;;;27.26;25.70;97568.72;5056676;28;20021;-78
2022/09/19 12:08:05;;;;;;;0.70;0.30;;;;;;;28.41;25.44;97572.44;5063796;28;20470;-77
2022/09/19 12:10:38;;;;;;;0.30;0.30;;;;;;;28.01;25.51;97564.22;5073097;28;20024;-77
2022/09/19 12:13:22;;;;;;;0.50;0.40;;;;;;;28.35;25.32;97557.41;5073442;28;20063;-76
2022/09/19 12:15:57;;;;;;;0.40;0.40;;;;;;;29.29;24.73;97566.06;5068149;28;20036;-77
2022/09/19 12:18:38;;;;;;;0.22;0.22;;;;;;;29.26;24.66;97561.38;5067368;28;20131;-77
2022/09/19 12:21:07;;;;;;;0.98;0.50;;;;;;;29.84;24.31;97560.00;5070287;28;20107;-77